createdAt,value
2022-08-20T00:00:00.881Z,100.00
2022-08-20T00:02:27.547Z,100.00
2022-08-20T00:04:54.286Z,100.00
2022-08-20T00:07:20.913Z,100.00
2022-08-20T00:09:47.563Z,100.00
2022-08-20T00:12:16.777Z,100.00
2022-08-20T00:14:43.539Z,100.00
2022-08-20T00:17:10.229Z,100.00
2022-08-20T00:19:36.930Z,100.00
2022-08-20T00:22:04.173Z,100.00
2022-08-20T00:24:30.867Z,100.00
2022-08-20T00:26:57.483Z,100.00
2022-08-20T00:29:24.143Z,100.00
2022-08-20T00:31:51.428Z,100.00
2022-08-20T00:34:18.294Z,100.00
2022-08-20T00:36:45.195Z,100.00
2022-08-20T00:39:11.922Z,100.00
2022-08-20T00:41:38.757Z,100.00
2022-08-20T00:44:23.849Z,100.00
2022-08-20T00:46:52.778Z,100.00
2022-08-20T00:49:24.881Z,100.00
2022-08-20T00:52:17.548Z,100.00
2022-08-20T00:54:51.821Z,100.00
2022-08-20T00:57:26.040Z,100.00
2022-08-20T00:59:53.587Z,100.00
2022-08-20T01:02:23.038Z,100.00
2022-08-20T01:04:56.168Z,100.00
2022-08-20T01:07:32.549Z,100.00
2022-08-20T01:10:07.085Z,100.00
2022-08-20T01:12:33.788Z,100.00
2022-08-20T01:15:02.557Z,100.00
2022-08-20T01:17:34.427Z,100.00
2022-08-20T01:20:09.948Z,100.00
2022-08-20T01:23:27.967Z,100.00
2022-08-20T01:26:15.113Z,100.00
2022-08-20T01:28:47.132Z,100.00
2022-08-20T01:31:21.194Z,100.00
2022-08-20T01:33:49.476Z,100.00
2022-08-20T01:36:18.392Z,100.00
2022-08-20T01:38:50.279Z,100.00
2022-08-20T01:41:28.606Z,100.00
2022-08-20T01:43:58.489Z,100.00
2022-08-20T01:46:33.088Z,100.00
2022-08-20T01:49:32.240Z,100.00
2022-08-20T01:52:05.710Z,100.00
2022-08-20T01:54:33.128Z,100.00
2022-08-20T01:57:05.993Z,100.00
2022-08-20T01:59:32.770Z,100.00
2022-08-20T02:02:00.440Z,100.00
2022-08-20T02:04:27.414Z,100.00
2022-08-20T02:06:58.187Z,100.00
2022-08-20T02:09:30.446Z,100.00
2022-08-20T02:11:58.477Z,100.00
2022-08-20T02:14:26.531Z,100.00
2022-08-20T02:16:54.625Z,100.00
2022-08-20T02:19:51.199Z,100.00
2022-08-20T02:22:30.811Z,100.00
2022-08-20T02:24:57.632Z,100.00
2022-08-20T02:27:24.437Z,100.00
2022-08-20T02:29:52.948Z,100.00
2022-08-20T02:32:32.125Z,100.00
2022-08-20T02:35:04.129Z,100.00
2022-08-20T02:37:31.449Z,100.00
2022-08-20T02:39:58.721Z,100.00
2022-08-20T02:42:26.491Z,100.00
2022-08-20T02:44:54.447Z,100.00
2022-08-20T02:47:21.124Z,100.00
2022-08-20T02:49:49.486Z,100.00
2022-08-20T02:52:16.206Z,100.00
2022-08-20T02:54:42.933Z,100.00
2022-08-20T02:57:15.304Z,100.00
2022-08-20T02:59:44.338Z,100.00
2022-08-20T03:02:12.131Z,100.00
2022-08-20T03:04:39.059Z,100.00
2022-08-20T03:07:06.616Z,100.00
2022-08-20T03:09:34.291Z,100.00
2022-08-20T03:12:00.977Z,100.00
2022-08-20T03:14:27.624Z,100.00
2022-08-20T03:16:54.700Z,100.00
2022-08-20T03:19:21.401Z,100.00
2022-08-20T03:21:48.061Z,100.00
2022-08-20T03:24:15.579Z,100.00
2022-08-20T03:26:43.485Z,100.00
2022-08-20T03:29:10.449Z,100.00
2022-08-20T03:31:37.994Z,100.00
2022-08-20T03:34:05.868Z,100.00
2022-08-20T03:36:32.725Z,100.00
2022-08-20T03:39:04.876Z,100.00
2022-08-20T03:41:32.299Z,100.00
2022-08-20T03:43:59.070Z,100.00
2022-08-20T03:46:26.148Z,100.00
2022-08-20T03:48:59.889Z,100.00
2022-08-20T03:51:31.090Z,100.00
2022-08-20T03:53:58.033Z,100.00
2022-08-20T03:56:25.412Z,100.00
2022-08-20T03:58:52.356Z,100.00
2022-08-20T04:01:45.031Z,100.00
2022-08-20T04:04:05.840Z,100.00
2022-08-20T04:06:39.125Z,100.00
2022-08-20T04:09:07.131Z,100.00
2022-08-20T04:11:37.306Z,100.00
2022-08-20T04:14:03.979Z,100.00
2022-08-20T04:16:33.594Z,100.00
2022-08-20T04:19:02.203Z,100.00
2022-08-20T04:21:33.029Z,100.00
2022-08-20T04:24:00.912Z,100.00
2022-08-20T04:26:27.779Z,100.00
2022-08-20T04:28:55.917Z,100.00
2022-08-20T04:31:33.132Z,100.00
2022-08-20T04:34:05.127Z,100.00
2022-08-20T04:36:31.875Z,100.00
2022-08-20T04:38:58.759Z,100.00
2022-08-20T04:41:25.572Z,100.00
2022-08-20T04:43:54.382Z,100.00
2022-08-20T04:46:23.908Z,100.00
2022-08-20T04:48:50.857Z,100.00
2022-08-20T04:51:18.875Z,100.00
2022-08-20T04:53:52.091Z,100.00
2022-08-20T04:56:19.844Z,100.00
2022-08-20T04:58:48.841Z,100.00
2022-08-20T05:01:16.206Z,100.00
2022-08-20T05:03:43.092Z,100.00
2022-08-20T05:06:11.850Z,100.00
2022-08-20T05:08:39.834Z,100.00
2022-08-20T05:11:30.148Z,100.00
2022-08-20T05:13:56.188Z,100.00
2022-08-20T05:16:24.556Z,100.00
2022-08-20T05:18:52.428Z,100.00
2022-08-20T05:21:20.892Z,100.00
2022-08-20T05:23:47.663Z,100.00
2022-08-20T05:26:15.940Z,100.00
2022-08-20T05:28:57.935Z,100.00
2022-08-20T05:31:31.889Z,100.00
2022-08-20T05:34:10.777Z,100.00
2022-08-20T05:36:45.150Z,100.00
2022-08-20T05:39:14.533Z,100.00
2022-08-20T05:41:41.256Z,100.00
2022-08-20T05:44:10.936Z,100.00
2022-08-20T05:46:41.048Z,100.00
2022-08-20T05:49:13.728Z,100.00
2022-08-20T05:51:40.741Z,100.00
2022-08-20T05:54:07.860Z,100.00
2022-08-20T05:56:35.031Z,100.00
2022-08-20T05:59:06.035Z,100.00
2022-08-20T06:01:34.151Z,100.00
2022-08-20T06:04:19.996Z,100.00
2022-08-20T06:06:47.752Z,100.00
2022-08-20T06:09:27.923Z,100.00
2022-08-20T06:11:59.593Z,100.00
2022-08-20T06:14:26.628Z,100.00
2022-08-20T06:16:57.973Z,100.00
2022-08-20T06:19:27.264Z,100.00
2022-08-20T06:21:59.636Z,100.00
2022-08-20T06:24:26.924Z,100.00
2022-08-20T06:26:59.957Z,100.00
2022-08-20T06:29:28.024Z,100.00
2022-08-20T06:31:56.015Z,100.00
2022-08-20T06:34:24.299Z,100.00
2022-08-20T06:36:50.922Z,100.00
2022-08-20T06:39:17.713Z,100.00
2022-08-20T06:41:45.031Z,100.00
2022-08-20T06:44:11.745Z,100.00
2022-08-20T06:46:38.624Z,100.00
2022-08-20T06:49:07.492Z,100.00
2022-08-20T06:51:37.285Z,100.00
2022-08-20T06:54:05.322Z,100.00
2022-08-20T06:56:33.417Z,100.00
2022-08-20T06:59:02.920Z,100.00
2022-08-20T07:01:29.697Z,100.00
2022-08-20T07:03:59.657Z,100.00
2022-08-20T07:06:27.368Z,100.00
2022-08-20T07:08:55.833Z,100.00
2022-08-20T07:11:27.839Z,100.00
2022-08-20T07:13:57.217Z,100.00
2022-08-20T07:16:24.642Z,100.00
2022-08-20T07:18:51.452Z,100.00
2022-08-20T07:21:18.471Z,100.00
2022-08-20T07:23:45.369Z,100.00
2022-08-20T07:26:13.176Z,100.00
2022-08-20T07:28:39.879Z,100.00
2022-08-20T07:31:25.081Z,100.00
2022-08-20T07:33:51.734Z,100.00
2022-08-20T07:36:20.340Z,100.00
2022-08-20T07:38:48.201Z,100.00
2022-08-20T07:41:15.241Z,100.00
2022-08-20T07:43:45.615Z,100.00
2022-08-20T07:46:20.859Z,100.00
2022-08-20T07:48:50.342Z,100.00
2022-08-20T07:51:22.332Z,100.00
2022-08-20T07:53:50.369Z,100.00
2022-08-20T07:56:21.658Z,100.00
2022-08-20T07:58:52.298Z,100.00
2022-08-20T08:01:26.387Z,100.00
2022-08-20T08:03:53.316Z,100.00
2022-08-20T08:06:30.486Z,100.00
2022-08-20T08:09:14.218Z,100.00
2022-08-20T08:11:47.520Z,100.00
2022-08-20T08:14:16.931Z,100.00
2022-08-20T08:16:45.413Z,100.00
2022-08-20T08:19:15.775Z,100.00
2022-08-20T08:21:44.268Z,100.00
2022-08-20T08:24:14.348Z,100.00
2022-08-20T08:26:44.100Z,100.00
2022-08-20T08:29:12.114Z,100.00
2022-08-20T08:31:40.933Z,100.00
2022-08-20T08:34:08.035Z,100.00
2022-08-20T08:36:34.844Z,100.00
2022-08-20T08:39:01.572Z,100.00
2022-08-20T08:41:40.001Z,100.00
2022-08-20T08:44:12.822Z,100.00
2022-08-20T08:46:43.005Z,100.00
2022-08-20T08:49:16.531Z,100.00
2022-08-20T08:51:50.178Z,100.00
2022-08-20T08:54:22.135Z,100.00
2022-08-20T08:56:50.280Z,100.00
2022-08-20T08:59:18.843Z,100.00
2022-08-20T09:01:57.255Z,100.00
2022-08-20T09:04:32.149Z,100.00
2022-08-20T09:06:59.814Z,100.00
2022-08-20T09:09:31.508Z,100.00
2022-08-20T09:12:08.479Z,100.00
2022-08-20T09:14:36.222Z,100.00
2022-08-20T09:17:03.937Z,100.00
2022-08-20T09:19:31.171Z,100.00
2022-08-20T09:21:58.005Z,100.00
2022-08-20T09:24:25.476Z,100.00
2022-08-20T09:26:52.061Z,100.00
2022-08-20T09:29:18.778Z,100.00
2022-08-20T09:31:46.453Z,99.70
2022-08-20T09:34:13.570Z,96.40
2022-08-20T09:36:41.057Z,95.43
2022-08-20T09:39:07.799Z,98.27
2022-08-20T09:41:34.736Z,99.63
2022-08-20T09:44:02.012Z,100.00
2022-08-20T09:46:28.783Z,100.00
2022-08-20T09:48:55.597Z,100.00
2022-08-20T09:51:22.877Z,100.00
2022-08-20T09:53:50.177Z,100.00
2022-08-20T09:56:17.217Z,100.00
2022-08-20T09:58:57.993Z,100.00
2022-08-20T10:01:26.625Z,100.00
2022-08-20T10:03:53.300Z,99.65
2022-08-20T10:06:20.785Z,100.00
2022-08-20T10:08:48.451Z,97.87
2022-08-20T10:11:15.711Z,89.98
2022-08-20T10:13:42.351Z,90.46
2022-08-20T10:16:09.074Z,88.56
2022-08-20T10:18:37.062Z,90.31
2022-08-20T10:21:08.575Z,87.34
2022-08-20T10:23:35.202Z,90.52
2022-08-20T10:26:01.985Z,91.23
2022-08-20T10:28:28.635Z,90.53
2022-08-20T10:30:55.357Z,92.19
2022-08-20T10:33:22.003Z,94.46
2022-08-20T10:35:48.622Z,97.05
2022-08-20T10:38:15.916Z,96.45
2022-08-20T10:40:42.638Z,94.51
2022-08-20T10:43:18.879Z,88.85
2022-08-20T10:45:45.527Z,92.45
2022-08-20T10:48:12.238Z,91.26
2022-08-20T10:50:39.003Z,92.18
2022-08-20T10:53:05.727Z,90.40
2022-08-20T10:55:32.494Z,90.87
2022-08-20T10:57:59.164Z,89.22
2022-08-20T11:00:26.158Z,89.96
2022-08-20T11:02:52.835Z,89.56
2022-08-20T11:05:19.536Z,90.61
2022-08-20T11:07:50.549Z,93.62
2022-08-20T11:10:27.209Z,96.87
2022-08-20T11:12:54.739Z,96.33
2022-08-20T11:15:21.802Z,95.69
2022-08-20T11:17:48.522Z,100.00
2022-08-20T11:20:18.592Z,98.94
2022-08-20T11:22:45.790Z,100.00
2022-08-20T11:25:13.163Z,100.00
2022-08-20T11:27:44.238Z,100.00
2022-08-20T11:30:15.719Z,98.21
2022-08-20T11:32:42.467Z,98.64
2022-08-20T11:35:38.293Z,94.77
2022-08-20T11:37:59.300Z,94.18
2022-08-20T11:40:27.959Z,94.96
2022-08-20T11:43:13.805Z,93.48
2022-08-20T11:45:41.932Z,94.96
2022-08-20T11:48:08.671Z,94.54
2022-08-20T11:50:35.324Z,91.19
2022-08-20T11:53:01.982Z,88.10
2022-08-20T11:55:30.317Z,89.01
2022-08-20T11:58:00.021Z,87.76
2022-08-20T12:00:31.967Z,86.71
2022-08-20T12:03:05.328Z,86.00
2022-08-20T12:05:33.417Z,86.83
2022-08-20T12:08:01.604Z,86.32
2022-08-20T12:10:29.791Z,92.01
2022-08-20T12:12:56.499Z,84.93
2022-08-20T12:15:24.306Z,84.57
2022-08-20T12:17:51.067Z,87.56
2022-08-20T12:20:17.743Z,85.64
2022-08-20T12:22:44.807Z,81.86
2022-08-20T12:25:13.327Z,79.76
2022-08-20T12:27:40.703Z,76.53
2022-08-20T12:30:17.265Z,72.38
2022-08-20T12:32:44.637Z,74.08
2022-08-20T12:35:12.846Z,73.33
2022-08-20T12:37:40.719Z,71.42
2022-08-20T12:40:11.227Z,69.93
2022-08-20T12:42:38.026Z,70.31
2022-08-20T12:45:06.164Z,69.63
2022-08-20T12:47:38.774Z,68.20
2022-08-20T12:50:09.052Z,68.87
2022-08-20T12:52:36.185Z,65.67
2022-08-20T12:55:04.985Z,66.65
2022-08-20T12:57:41.745Z,65.22
2022-08-20T13:00:15.656Z,65.83
2022-08-20T13:02:42.547Z,67.33
2022-08-20T13:05:11.830Z,65.71
2022-08-20T13:07:39.326Z,67.04
2022-08-20T13:10:08.553Z,69.34
2022-08-20T13:12:35.697Z,66.85
2022-08-20T13:15:02.893Z,67.51
2022-08-20T13:17:38.942Z,68.13
2022-08-20T13:20:13.253Z,68.37
2022-08-20T13:22:40.959Z,69.94
2022-08-20T13:25:09.127Z,65.19
2022-08-20T13:27:38.452Z,68.27
2022-08-20T13:30:07.385Z,68.58
2022-08-20T13:32:34.514Z,68.88
2022-08-20T13:35:01.337Z,70.18
2022-08-20T13:37:29.314Z,69.36
2022-08-20T13:39:57.389Z,71.88
2022-08-20T13:42:25.130Z,70.11
2022-08-20T13:44:52.316Z,72.03
2022-08-20T13:47:28.506Z,71.93
2022-08-20T13:49:57.697Z,72.78
2022-08-20T13:52:25.593Z,76.22
2022-08-20T13:54:53.480Z,72.45
2022-08-20T13:57:21.458Z,67.10
2022-08-20T13:59:50.408Z,65.65
2022-08-20T14:02:18.008Z,67.01
2022-08-20T14:04:46.097Z,65.82
2022-08-20T14:07:23.256Z,67.33
2022-08-20T14:09:54.189Z,68.49
2022-08-20T14:12:23.215Z,67.93
2022-08-20T14:14:51.798Z,64.98
2022-08-20T14:17:20.182Z,66.25
2022-08-20T14:19:48.876Z,68.30
2022-08-20T14:22:17.805Z,68.45
2022-08-20T14:24:48.914Z,67.35
2022-08-20T14:27:18.348Z,65.39
2022-08-20T14:29:46.910Z,64.61
2022-08-20T14:32:15.030Z,62.53
2022-08-20T14:34:41.947Z,63.66
2022-08-20T14:37:23.762Z,61.61
2022-08-20T14:39:52.825Z,60.57
2022-08-20T14:42:20.666Z,61.43
2022-08-20T14:44:47.319Z,58.09
2022-08-20T14:47:14.426Z,56.03
2022-08-20T14:49:41.473Z,56.91
2022-08-20T14:52:08.541Z,59.30
2022-08-20T14:54:35.854Z,58.93
2022-08-20T14:57:03.124Z,57.44
2022-08-20T14:59:30.332Z,59.15
2022-08-20T15:01:57.389Z,60.51
2022-08-20T15:04:24.399Z,58.20
2022-08-20T15:06:54.726Z,58.29
2022-08-20T15:09:21.457Z,55.82
2022-08-20T15:11:48.172Z,56.60
2022-08-20T15:14:15.160Z,56.59
2022-08-20T15:16:45.244Z,61.70
2022-08-20T15:19:12.007Z,60.98
2022-08-20T15:21:44.757Z,60.38
2022-08-20T15:24:19.053Z,57.67
2022-08-20T15:26:46.037Z,58.40
2022-08-20T15:29:13.015Z,64.45
2022-08-20T15:31:49.917Z,66.21
2022-08-20T15:34:18.443Z,67.89
2022-08-20T15:36:45.811Z,70.71
2022-08-20T15:39:12.461Z,68.51
2022-08-20T15:41:39.279Z,69.99
2022-08-20T15:44:06.176Z,73.84
2022-08-20T15:46:37.724Z,73.24
2022-08-20T15:49:12.447Z,70.88
2022-08-20T15:51:43.132Z,77.84
2022-08-20T15:54:30.090Z,78.84
2022-08-20T15:57:07.297Z,80.42
2022-08-20T16:00:02.077Z,80.26
2022-08-20T16:02:51.944Z,82.37
2022-08-20T16:05:37.534Z,80.57
2022-08-20T16:08:41.964Z,82.92
2022-08-20T16:11:34.847Z,80.78
2022-08-20T16:14:29.761Z,79.97
2022-08-20T16:17:05.554Z,80.29
2022-08-20T16:19:54.406Z,80.65
2022-08-20T16:22:22.320Z,80.84
2022-08-20T16:24:50.155Z,81.48
2022-08-20T16:27:31.703Z,83.34
2022-08-20T16:30:04.373Z,83.10
2022-08-20T16:32:33.943Z,83.03
2022-08-20T16:35:16.570Z,85.84
2022-08-20T16:38:04.691Z,85.69
2022-08-20T16:40:39.153Z,86.80
2022-08-20T16:43:07.127Z,86.09
2022-08-20T16:46:00.350Z,86.54
2022-08-20T16:48:38.734Z,86.05
2022-08-20T16:51:17.478Z,87.68
2022-08-20T16:53:44.198Z,88.25
2022-08-20T16:56:10.922Z,88.00
2022-08-20T16:58:37.579Z,88.20
2022-08-20T17:01:08.524Z,90.88
2022-08-20T17:03:40.486Z,90.10
2022-08-20T17:06:41.642Z,90.22
2022-08-20T17:09:12.261Z,91.30
2022-08-20T17:11:41.841Z,91.87
2022-08-20T17:14:18.112Z,93.14
2022-08-20T17:16:48.829Z,91.59
2022-08-20T17:19:30.662Z,90.27
2022-08-20T17:22:10.353Z,78.21
2022-08-20T17:24:38.538Z,75.15
2022-08-20T17:27:10.644Z,74.64
2022-08-20T17:29:50.284Z,73.96
2022-08-20T17:32:22.837Z,76.21
2022-08-20T17:34:52.321Z,77.62
2022-08-20T17:37:27.254Z,79.19
2022-08-20T17:40:16.064Z,82.03
2022-08-20T17:43:09.290Z,83.24
2022-08-20T17:45:45.924Z,82.83
2022-08-20T17:48:28.426Z,83.82
2022-08-20T17:50:57.878Z,83.72
2022-08-20T17:53:33.813Z,84.34
2022-08-20T17:56:16.109Z,82.02
2022-08-20T17:58:55.009Z,84.12
2022-08-20T18:01:23.368Z,85.05
2022-08-20T18:03:51.804Z,85.25
2022-08-20T18:06:37.318Z,84.89
2022-08-20T18:09:17.262Z,86.04
2022-08-20T18:12:01.680Z,86.48
2022-08-20T18:14:47.122Z,90.31
2022-08-20T18:17:35.740Z,90.18
2022-08-20T18:20:17.338Z,87.35
2022-08-20T18:23:11.404Z,91.33
2022-08-20T18:25:55.305Z,93.40
2022-08-20T18:28:28.216Z,95.29
2022-08-20T18:30:58.571Z,98.37
2022-08-20T18:33:42.550Z,97.74
2022-08-20T18:36:22.436Z,98.25
2022-08-20T18:39:05.960Z,100.00
2022-08-20T18:41:57.066Z,100.00
2022-08-20T18:44:38.922Z,100.00
2022-08-20T18:47:18.536Z,100.00
2022-08-20T18:49:45.182Z,100.00
2022-08-20T18:52:26.293Z,100.00
2022-08-20T18:54:59.499Z,100.00
2022-08-20T18:57:32.100Z,100.00
2022-08-20T19:00:17.203Z,100.00
2022-08-20T19:02:58.683Z,100.00
2022-08-20T19:05:36.874Z,100.00
2022-08-20T19:08:06.293Z,100.00
2022-08-20T19:10:36.100Z,100.00
2022-08-20T19:13:24.461Z,100.00
2022-08-20T19:15:59.225Z,100.00
2022-08-20T19:18:37.804Z,100.00
2022-08-20T19:21:05.543Z,100.00
2022-08-20T19:23:48.750Z,100.00
2022-08-20T19:26:25.927Z,100.00
2022-08-20T19:29:02.068Z,100.00
2022-08-20T19:31:33.017Z,100.00
2022-08-20T19:34:19.025Z,100.00
2022-08-20T19:36:54.534Z,100.00
2022-08-20T19:39:25.658Z,100.00
2022-08-20T19:41:55.591Z,100.00
2022-08-20T19:44:34.967Z,100.00
2022-08-20T19:47:02.595Z,100.00
2022-08-20T19:49:55.572Z,100.00
2022-08-20T19:53:04.084Z,100.00
2022-08-20T19:55:35.448Z,100.00
2022-08-20T19:58:07.174Z,100.00
2022-08-20T20:00:43.329Z,100.00
2022-08-20T20:03:17.868Z,100.00
2022-08-20T20:06:16.663Z,100.00
2022-08-20T20:08:59.218Z,100.00
2022-08-20T20:11:44.604Z,100.00
2022-08-20T20:14:13.562Z,100.00
2022-08-20T20:16:41.176Z,100.00
2022-08-20T20:19:28.590Z,100.00
2022-08-20T20:22:19.121Z,100.00
2022-08-20T20:25:19.443Z,100.00
2022-08-20T20:27:51.906Z,100.00
2022-08-20T20:30:33.480Z,100.00
2022-08-20T20:33:10.690Z,100.00
2022-08-20T20:35:37.523Z,100.00
2022-08-20T20:38:08.094Z,100.00
2022-08-20T20:40:49.503Z,100.00
2022-08-20T20:43:42.990Z,100.00
2022-08-20T20:46:15.650Z,100.00
2022-08-20T20:48:46.893Z,100.00
2022-08-20T20:51:16.402Z,100.00
2022-08-20T20:53:54.280Z,100.00
2022-08-20T20:56:29.958Z,100.00
2022-08-20T20:58:56.972Z,100.00
2022-08-20T21:01:27.353Z,100.00
2022-08-20T21:04:11.214Z,100.00
2022-08-20T21:06:38.750Z,100.00
2022-08-20T21:09:05.617Z,100.00
2022-08-20T21:11:32.260Z,100.00
2022-08-20T21:13:58.881Z,100.00
2022-08-20T21:16:25.545Z,100.00
2022-08-20T21:18:52.268Z,100.00
2022-08-20T21:21:18.948Z,100.00
2022-08-20T21:23:45.636Z,100.00
2022-08-20T21:26:12.459Z,100.00
2022-08-20T21:28:39.640Z,100.00
2022-08-20T21:31:06.338Z,100.00
2022-08-20T21:33:32.989Z,100.00
2022-08-20T21:35:59.693Z,100.00
2022-08-20T21:38:26.478Z,100.00
2022-08-20T21:40:53.154Z,100.00
2022-08-20T21:43:24.411Z,100.00
2022-08-20T21:45:51.178Z,100.00
2022-08-20T21:48:17.875Z,100.00
2022-08-20T21:50:44.545Z,100.00
2022-08-20T21:53:11.373Z,100.00
2022-08-20T21:55:40.608Z,100.00
2022-08-20T21:58:08.505Z,100.00
2022-08-20T22:00:45.215Z,100.00
2022-08-20T22:03:13.363Z,100.00
2022-08-20T22:05:41.685Z,100.00
2022-08-20T22:08:09.433Z,100.00
2022-08-20T22:10:36.142Z,100.00
2022-08-20T22:13:03.189Z,100.00
2022-08-20T22:15:29.872Z,100.00
2022-08-20T22:17:56.533Z,100.00
2022-08-20T22:20:25.180Z,100.00
2022-08-20T22:22:52.007Z,100.00
2022-08-20T22:25:18.771Z,100.00
2022-08-20T22:27:45.880Z,100.00
2022-08-20T22:30:12.800Z,100.00
2022-08-20T22:32:51.397Z,100.00
2022-08-20T22:35:19.537Z,100.00
2022-08-20T22:37:46.324Z,100.00
2022-08-20T22:40:13.151Z,100.00
2022-08-20T22:42:39.825Z,100.00
2022-08-20T22:45:14.476Z,100.00
2022-08-20T22:47:43.123Z,100.00
2022-08-20T22:50:12.059Z,100.00
2022-08-20T22:52:40.240Z,100.00
2022-08-20T22:55:07.261Z,100.00
2022-08-20T22:57:37.255Z,100.00
2022-08-20T23:00:11.864Z,100.00
2022-08-20T23:02:41.150Z,100.00
2022-08-20T23:05:13.746Z,100.00
2022-08-20T23:07:41.196Z,100.00
2022-08-20T23:10:08.648Z,100.00
2022-08-20T23:12:35.487Z,100.00
2022-08-20T23:15:02.313Z,100.00
2022-08-20T23:17:28.995Z,100.00
2022-08-20T23:19:55.672Z,100.00
2022-08-20T23:22:22.520Z,100.00
2022-08-20T23:24:49.382Z,100.00
2022-08-20T23:27:20.073Z,100.00
2022-08-20T23:29:47.481Z,100.00
2022-08-20T23:32:14.101Z,100.00
2022-08-20T23:34:40.785Z,100.00
2022-08-20T23:37:08.281Z,100.00
2022-08-20T23:39:35.023Z,100.00
2022-08-20T23:42:02.617Z,100.00
2022-08-20T23:44:29.467Z,100.00
2022-08-20T23:46:58.491Z,100.00
2022-08-20T23:49:26.619Z,100.00
2022-08-20T23:51:55.920Z,100.00
2022-08-20T23:54:22.586Z,100.00
2022-08-20T23:56:49.601Z,100.00
2022-08-20T23:59:16.800Z,100.00
